sensor_id;sensor_type;location;lat;lon;timestamp;pressure;altitude;pressure_sealevel;temperature;humidity
26978;BME280;56314;48.088;11.642;2024-03-02T00:02:06;94383.34;;;5.22;100.00
26978;BME280;56314;48.088;11.642;2024-03-02T00:04:32;94379.06;;;5.21;100.00
26978;BME280;56314;48.088;11.642;2024-03-02T00:06:57;94380.94;;;5.19;100.00
26978;BME280;56314;48.088;11.642;2024-03-02T00:09:23;94371.16;;;5.22;100.00
26978;BME280;56314;48.088;11.642;2024-03-02T00:11:49;94368.94;;;5.29;100.00
26978;BME280;56314;48.088;11.642;2024-03-02T00:14:15;94372.25;;;5.31;100.00
26978;BME280;56314;48.088;11.642;2024-03-02T00:16:41;94364.91;;;5.25;100.00
26978;BME280;56314;48.088;11.642;2024-03-02T00:19:07;94367.97;;;5.30;100.00
26978;BME280;56314;48.088;11.642;2024-03-02T00:21:34;94366.69;;;5.36;100.00
26978;BME280;56314;48.088;11.642;2024-03-02T00:23:59;94364.44;;;5.31;100.00
26978;BME280;56314;48.088;11.642;2024-03-02T00:26:28;94361.97;;;5.30;100.00
26978;BME280;56314;48.088;11.642;2024-03-02T00:28:55;94352.69;;;5.26;100.00
26978;BME280;56314;48.088;11.642;2024-03-02T00:31:22;94359.91;;;5.22;100.00
26978;BME280;56314;48.088;11.642;2024-03-02T00:33:48;94353.44;;;5.28;100.00
26978;BME280;56314;48.088;11.642;2024-03-02T00:36:22;94353.66;;;5.24;100.00
26978;BME280;56314;48.088;11.642;2024-03-02T00:38:51;94357.81;;;5.27;100.00
26978;BME280;56314;48.088;11.642;2024-03-02T00:41:24;94359.00;;;5.34;100.00
26978;BME280;56314;48.088;11.642;2024-03-02T00:44:01;94355.69;;;5.32;100.00
26978;BME280;56314;48.088;11.642;2024-03-02T00:46:33;94356.19;;;5.37;100.00
26978;BME280;56314;48.088;11.642;2024-03-02T00:49:04;94348.72;;;5.33;100.00
26978;BME280;56314;48.088;11.642;2024-03-02T00:51:32;94348.22;;;5.28;100.00
26978;BME280;56314;48.088;11.642;2024-03-02T00:54:08;94346.16;;;5.20;100.00
26978;BME280;56314;48.088;11.642;2024-03-02T00:56:35;94346.06;;;5.21;100.00
26978;BME280;56314;48.088;11.642;2024-03-02T00:59:00;94340.88;;;5.21;100.00
26978;BME280;56314;48.088;11.642;2024-03-02T01:01:26;94339.16;;;5.09;100.00
26978;BME280;56314;48.088;11.642;2024-03-02T01:03:52;94336.16;;;5.02;100.00
26978;BME280;56314;48.088;11.642;2024-03-02T01:06:18;94338.53;;;5.05;100.00
26978;BME280;56314;48.088;11.642;2024-03-02T01:08:43;94340.69;;;5.12;100.00
26978;BME280;56314;48.088;11.642;2024-03-02T01:11:09;94337.28;;;5.11;100.00
26978;BME280;56314;48.088;11.642;2024-03-02T01:13:35;94331.91;;;5.01;100.00
26978;BME280;56314;48.088;11.642;2024-03-02T01:16:01;94338.78;;;5.02;100.00
26978;BME280;56314;48.088;11.642;2024-03-02T01:18:27;94339.72;;;5.01;100.00
26978;BME280;56314;48.088;11.642;2024-03-02T01:20:53;94325.38;;;4.96;100.00
26978;BME280;56314;48.088;11.642;2024-03-02T01:23:21;94335.44;;;5.00;100.00
26978;BME280;56314;48.088;11.642;2024-03-02T01:25:47;94333.06;;;4.97;100.00
26978;BME280;56314;48.088;11.642;2024-03-02T01:28:13;94338.03;;;5.00;100.00
26978;BME280;56314;48.088;11.642;2024-03-02T01:30:38;94332.00;;;5.00;100.00
26978;BME280;56314;48.088;11.642;2024-03-02T01:33:04;94337.09;;;5.01;100.00
26978;BME280;56314;48.088;11.642;2024-03-02T01:35:31;94338.78;;;5.02;100.00
26978;BME280;56314;48.088;11.642;2024-03-02T01:37:56;94345.31;;;5.08;100.00
26978;BME280;56314;48.088;11.642;2024-03-02T01:40:22;94340.44;;;5.03;100.00
26978;BME280;56314;48.088;11.642;2024-03-02T01:42:51;94343.03;;;5.03;100.00
26978;BME280;56314;48.088;11.642;2024-03-02T01:45:16;94345.97;;;4.99;100.00
26978;BME280;56314;48.088;11.642;2024-03-02T01:47:42;94339.09;;;4.98;100.00
26978;BME280;56314;48.088;11.642;2024-03-02T01:50:07;94342.78;;;5.06;100.00
26978;BME280;56314;48.088;11.642;2024-03-02T01:52:33;94335.94;;;5.05;100.00
26978;BME280;56314;48.088;11.642;2024-03-02T01:54:58;94342.91;;;5.05;100.00
26978;BME280;56314;48.088;11.642;2024-03-02T01:57:24;94340.09;;;5.08;100.00
26978;BME280;56314;48.088;11.642;2024-03-02T01:59:49;94334.28;;;5.04;100.00
26978;BME280;56314;48.088;11.642;2024-03-02T02:02:16;94329.91;;;5.05;100.00
26978;BME280;56314;48.088;11.642;2024-03-02T02:04:42;94325.63;;;5.04;100.00
26978;BME280;56314;48.088;11.642;2024-03-02T02:07:07;94327.31;;;5.05;100.00
26978;BME280;56314;48.088;11.642;2024-03-02T02:09:32;94327.19;;;5.06;100.00
26978;BME280;56314;48.088;11.642;2024-03-02T02:11:58;94323.03;;;5.04;100.00
26978;BME280;56314;48.088;11.642;2024-03-02T02:14:24;94315.34;;;5.02;100.00
26978;BME280;56314;48.088;11.642;2024-03-02T02:16:50;94318.44;;;5.07;100.00
26978;BME280;56314;48.088;11.642;2024-03-02T02:19:15;94312.06;;;5.12;100.00
26978;BME280;56314;48.088;11.642;2024-03-02T02:21:44;94312.19;;;5.10;100.00
26978;BME280;56314;48.088;11.642;2024-03-02T02:24:09;94302.72;;;5.09;100.00
26978;BME280;56314;48.088;11.642;2024-03-02T02:26:34;94301.66;;;5.12;100.00
26978;BME280;56314;48.088;11.642;2024-03-02T02:29:00;94307.44;;;5.04;100.00
26978;BME280;56314;48.088;11.642;2024-03-02T02:31:25;94302.56;;;4.99;100.00
26978;BME280;56314;48.088;11.642;2024-03-02T02:33:51;94294.28;;;5.05;100.00
26978;BME280;56314;48.088;11.642;2024-03-02T02:36:16;94306.22;;;4.97;100.00
26978;BME280;56314;48.088;11.642;2024-03-02T02:38:44;94299.34;;;4.96;100.00
26978;BME280;56314;48.088;11.642;2024-03-02T02:41:11;94297.22;;;5.01;100.00
26978;BME280;56314;48.088;11.642;2024-03-02T02:43:38;94293.56;;;4.92;100.00
26978;BME280;56314;48.088;11.642;2024-03-02T02:46:05;94294.50;;;4.91;100.00
26978;BME280;56314;48.088;11.642;2024-03-02T02:48:30;94291.34;;;4.99;100.00
26978;BME280;56314;48.088;11.642;2024-03-02T02:50:55;94290.50;;;4.98;100.00
26978;BME280;56314;48.088;11.642;2024-03-02T02:53:21;94292.72;;;4.91;100.00
26978;BME280;56314;48.088;11.642;2024-03-02T02:55:47;94283.16;;;4.92;100.00
26978;BME280;56314;48.088;11.642;2024-03-02T02:58:12;94292.91;;;4.88;100.00
26978;BME280;56314;48.088;11.642;2024-03-02T03:00:38;94296.47;;;4.87;100.00
26978;BME280;56314;48.088;11.642;2024-03-02T03:03:03;94291.03;;;4.90;100.00
26978;BME280;56314;48.088;11.642;2024-03-02T03:05:29;94286.91;;;4.88;100.00
26978;BME280;56314;48.088;11.642;2024-03-02T03:07:54;94299.78;;;4.89;100.00
26978;BME280;56314;48.088;11.642;2024-03-02T03:10:20;94299.44;;;4.94;100.00
26978;BME280;56314;48.088;11.642;2024-03-02T03:12:48;94303.72;;;4.95;100.00
26978;BME280;56314;48.088;11.642;2024-03-02T03:15:14;94305.38;;;4.96;100.00
26978;BME280;56314;48.088;11.642;2024-03-02T03:17:41;94304.78;;;4.92;100.00
26978;BME280;56314;48.088;11.642;2024-03-02T03:20:07;94305.00;;;4.89;100.00
26978;BME280;56314;48.088;11.642;2024-03-02T03:22:35;94305.84;;;4.90;100.00
26978;BME280;56314;48.088;11.642;2024-03-02T03:25:01;94314.97;;;4.96;100.00
26978;BME280;56314;48.088;11.642;2024-03-02T03:27:26;94311.44;;;4.97;100.00
26978;BME280;56314;48.088;11.642;2024-03-02T03:29:51;94310.91;;;4.91;100.00
26978;BME280;56314;48.088;11.642;2024-03-02T03:32:17;94313.44;;;4.93;100.00
26978;BME280;56314;48.088;11.642;2024-03-02T03:34:43;94311.66;;;4.93;100.00
26978;BME280;56314;48.088;11.642;2024-03-02T03:37:08;94315.78;;;4.96;100.00
26978;BME280;56314;48.088;11.642;2024-03-02T03:39:34;94323.50;;;4.98;100.00
26978;BME280;56314;48.088;11.642;2024-03-02T03:42:01;94318.28;;;4.98;100.00
26978;BME280;56314;48.088;11.642;2024-03-02T03:44:26;94324.53;;;4.95;100.00
26978;BME280;56314;48.088;11.642;2024-03-02T03:46:52;94327.13;;;4.95;100.00
26978;BME280;56314;48.088;11.642;2024-03-02T03:49:17;94327.84;;;4.97;100.00
26978;BME280;56314;48.088;11.642;2024-03-02T03:51:43;94325.84;;;5.01;100.00
26978;BME280;56314;48.088;11.642;2024-03-02T03:54:08;94327.63;;;5.00;100.00
26978;BME280;56314;48.088;11.642;2024-03-02T03:56:36;94325.63;;;5.04;100.00
26978;BME280;56314;48.088;11.642;2024-03-02T03:59:01;94316.78;;;5.06;100.00
26978;BME280;56314;48.088;11.642;2024-03-02T04:01:27;94319.28;;;5.08;100.00
26978;BME280;56314;48.088;11.642;2024-03-02T04:03:52;94316.78;;;5.06;100.00
26978;BME280;56314;48.088;11.642;2024-03-02T04:06:18;94322.69;;;5.08;100.00
26978;BME280;56314;48.088;11.642;2024-03-02T04:08:43;94323.44;;;5.11;100.00
26978;BME280;56314;48.088;11.642;2024-03-02T04:11:08;94321.75;;;5.09;100.00
26978;BME280;56314;48.088;11.642;2024-03-02T04:13:34;94320.69;;;5.12;100.00
26978;BME280;56314;48.088;11.642;2024-03-02T04:15:59;94324.16;;;5.13;100.00
26978;BME280;56314;48.088;11.642;2024-03-02T04:18:25;94327.34;;;5.16;100.00
26978;BME280;56314;48.088;11.642;2024-03-02T04:20:50;94315.41;;;5.14;100.00
26978;BME280;56314;48.088;11.642;2024-03-02T04:23:15;94324.75;;;5.16;100.00
26978;BME280;56314;48.088;11.642;2024-03-02T04:25:41;94320.69;;;5.12;100.00
26978;BME280;56314;48.088;11.642;2024-03-02T04:28:06;94319.16;;;5.09;100.00
26978;BME280;56314;48.088;11.642;2024-03-02T04:30:31;94325.09;;;5.12;100.00
26978;BME280;56314;48.088;11.642;2024-03-02T04:32:57;94325.59;;;5.17;100.00
26978;BME280;56314;48.088;11.642;2024-03-02T04:35:23;94339.16;;;5.09;100.00
26978;BME280;56314;48.088;11.642;2024-03-02T04:37:48;94331.44;;;5.07;100.00
26978;BME280;56314;48.088;11.642;2024-03-02T04:40:14;94334.16;;;5.06;100.00
26978;BME280;56314;48.088;11.642;2024-03-02T04:42:39;94345.09;;;5.11;100.00
26978;BME280;56314;48.088;11.642;2024-03-02T04:45:05;94341.75;;;5.09;100.00
26978;BME280;56314;48.088;11.642;2024-03-02T04:47:31;94335.84;;;5.07;100.00
26978;BME280;56314;48.088;11.642;2024-03-02T04:49:56;94341.84;;;5.07;100.00
26978;BME280;56314;48.088;11.642;2024-03-02T04:52:21;94347.19;;;5.06;100.00
26978;BME280;56314;48.088;11.642;2024-03-02T04:54:47;94349.06;;;5.04;100.00
26978;BME280;56314;48.088;11.642;2024-03-02T04:57:30;94353.00;;;5.09;100.00
26978;BME280;56314;48.088;11.642;2024-03-02T04:59:56;94357.59;;;5.06;100.00
26978;BME280;56314;48.088;11.642;2024-03-02T05:02:21;94365.53;;;5.04;100.00
26978;BME280;56314;48.088;11.642;2024-03-02T05:04:46;94364.19;;;4.99;100.00
26978;BME280;56314;48.088;11.642;2024-03-02T05:07:14;94365.94;;;4.98;100.00
26978;BME280;56314;48.088;11.642;2024-03-02T05:09:39;94363.53;;;5.08;100.00
26978;BME280;56314;48.088;11.642;2024-03-02T05:12:05;94364.88;;;5.01;100.00
26978;BME280;56314;48.088;11.642;2024-03-02T05:14:48;94366.88;;;4.97;100.00
26978;BME280;56314;48.088;11.642;2024-03-02T05:17:13;94365.34;;;4.95;100.00
26978;BME280;56314;48.088;11.642;2024-03-02T05:19:38;94368.75;;;4.95;100.00
26978;BME280;56314;48.088;11.642;2024-03-02T05:22:04;94373.63;;;5.00;100.00
26978;BME280;56314;48.088;11.642;2024-03-02T05:24:29;94372.09;;;4.97;100.00
26978;BME280;56314;48.088;11.642;2024-03-02T05:26:55;94376.56;;;4.95;100.00
26978;BME280;56314;48.088;11.642;2024-03-02T05:29:20;94374.41;;;4.89;100.00
26978;BME280;56314;48.088;11.642;2024-03-02T05:31:46;94366.59;;;4.89;100.00
26978;BME280;56314;48.088;11.642;2024-03-02T05:34:11;94367.09;;;4.94;100.00
26978;BME280;56314;48.088;11.642;2024-03-02T05:36:37;94369.00;;;4.92;100.00
26978;BME280;56314;48.088;11.642;2024-03-02T05:39:04;94361.88;;;4.94;100.00
26978;BME280;56314;48.088;11.642;2024-03-02T05:41:31;94372.28;;;4.94;100.00
26978;BME280;56314;48.088;11.642;2024-03-02T05:43:56;94374.19;;;4.92;100.00
26978;BME280;56314;48.088;11.642;2024-03-02T05:46:22;94375.34;;;4.88;100.00
26978;BME280;56314;48.088;11.642;2024-03-02T05:48:47;94374.63;;;4.86;100.00
26978;BME280;56314;48.088;11.642;2024-03-02T05:51:12;94372.22;;;4.83;100.00
26978;BME280;56314;48.088;11.642;2024-03-02T05:53:38;94375.78;;;4.82;100.00
26978;BME280;56314;48.088;11.642;2024-03-02T05:56:04;94376.41;;;4.85;100.00
26978;BME280;56314;48.088;11.642;2024-03-02T05:58:30;94371.28;;;4.84;100.00
26978;BME280;56314;48.088;11.642;2024-03-02T06:01:14;94371.28;;;4.84;100.00
26978;BME280;56314;48.088;11.642;2024-03-02T06:03:40;94369.94;;;4.91;100.00
26978;BME280;56314;48.088;11.642;2024-03-02T06:06:05;94369.59;;;4.96;100.00
26978;BME280;56314;48.088;11.642;2024-03-02T06:08:31;94377.28;;;4.97;100.00
26978;BME280;56314;48.088;11.642;2024-03-02T06:10:56;94370.41;;;4.96;100.00
26978;BME280;56314;48.088;11.642;2024-03-02T06:13:22;94375.63;;;4.96;100.00
26978;BME280;56314;48.088;11.642;2024-03-02T06:15:48;94384.03;;;5.00;100.00
26978;BME280;56314;48.088;11.642;2024-03-02T06:18:13;94379.56;;;5.02;100.00
26978;BME280;56314;48.088;11.642;2024-03-02T06:20:39;94377.81;;;5.02;100.00
26978;BME280;56314;48.088;11.642;2024-03-02T06:23:04;94379.47;;;5.03;100.00
26978;BME280;56314;48.088;11.642;2024-03-02T06:25:30;94388.81;;;5.06;100.00
26978;BME280;56314;48.088;11.642;2024-03-02T06:27:55;94386.22;;;5.06;100.00
26978;BME280;56314;48.088;11.642;2024-03-02T06:30:21;94382.34;;;5.12;100.00
26978;BME280;56314;48.088;11.642;2024-03-02T06:32:46;94386.81;;;5.09;100.00
26978;BME280;56314;48.088;11.642;2024-03-02T06:35:11;94384.22;;;5.09;100.00
26978;BME280;56314;48.088;11.642;2024-03-02T06:37:38;94389.94;;;5.15;100.00
26978;BME280;56314;48.088;11.642;2024-03-02T06:40:05;94386.47;;;5.14;100.00
26978;BME280;56314;48.088;11.642;2024-03-02T06:42:33;94387.44;;;5.13;100.00
26978;BME280;56314;48.088;11.642;2024-03-02T06:44:59;94384.13;;;5.11;100.00
26978;BME280;56314;48.088;11.642;2024-03-02T06:47:24;94380.56;;;5.12;100.00
26978;BME280;56314;48.088;11.642;2024-03-02T06:49:50;94382.13;;;5.15;100.00
26978;BME280;56314;48.088;11.642;2024-03-02T06:52:16;94377.53;;;5.18;100.00
26978;BME280;56314;48.088;11.642;2024-03-02T06:54:41;94377.19;;;5.23;100.00
26978;BME280;56314;48.088;11.642;2024-03-02T06:57:07;94376.03;;;5.27;100.00
26978;BME280;56314;48.088;11.642;2024-03-02T06:59:32;94375.19;;;5.27;100.00
26978;BME280;56314;48.088;11.642;2024-03-02T07:01:58;94384.31;;;5.32;100.00
26978;BME280;56314;48.088;11.642;2024-03-02T07:04:24;94371.81;;;5.37;100.00
26978;BME280;56314;48.088;11.642;2024-03-02T07:06:49;94372.53;;;5.39;100.00
26978;BME280;56314;48.088;11.642;2024-03-02T07:09:14;94385.09;;;5.46;100.00
26978;BME280;56314;48.088;11.642;2024-03-02T07:11:40;94380.28;;;5.52;100.00
26978;BME280;56314;48.088;11.642;2024-03-02T07:14:05;94377.78;;;5.51;100.00
26978;BME280;56314;48.088;11.642;2024-03-02T07:16:31;94382.88;;;5.52;100.00
26978;BME280;56314;48.088;11.642;2024-03-02T07:18:58;94378.25;;;5.56;100.00
26978;BME280;56314;48.088;11.642;2024-03-02T07:21:24;94378.16;;;5.58;100.00
26978;BME280;56314;48.088;11.642;2024-03-02T07:23:49;94380.44;;;5.62;100.00
26978;BME280;56314;48.088;11.642;2024-03-02T07:26:15;94380.31;;;5.64;100.00
26978;BME280;56314;48.088;11.642;2024-03-02T07:28:43;94379.97;;;5.68;100.00
26978;BME280;56314;48.088;11.642;2024-03-02T07:31:09;94385.09;;;5.81;100.00
26978;BME280;56314;48.088;11.642;2024-03-02T07:33:35;94382.03;;;5.88;100.00
26978;BME280;56314;48.088;11.642;2024-03-02T07:36:00;94383.25;;;5.95;100.00
26978;BME280;56314;48.088;11.642;2024-03-02T07:38:27;94377.25;;;6.06;100.00
26978;BME280;56314;48.088;11.642;2024-03-02T07:40:53;94391.81;;;6.20;100.00
26978;BME280;56314;48.088;11.642;2024-03-02T07:43:19;94379.66;;;6.31;100.00
26978;BME280;56314;48.088;11.642;2024-03-02T07:45:45;94382.03;;;6.46;99.49
26978;BME280;56314;48.088;11.642;2024-03-02T07:48:10;94396.84;;;6.57;98.81
26978;BME280;56314;48.088;11.642;2024-03-02T07:50:36;94387.34;;;6.78;97.55
26978;BME280;56314;48.088;11.642;2024-03-02T07:53:02;94380.91;;;6.94;95.87
26978;BME280;56314;48.088;11.642;2024-03-02T07:55:29;94387.78;;;6.95;94.83
26978;BME280;56314;48.088;11.642;2024-03-02T07:57:55;94392.66;;;7.00;95.35
26978;BME280;56314;48.088;11.642;2024-03-02T08:00:20;94389.78;;;7.14;95.50
26978;BME280;56314;48.088;11.642;2024-03-02T08:02:46;94397.03;;;7.54;94.99
26978;BME280;56314;48.088;11.642;2024-03-02T08:05:11;94394.56;;;7.74;91.23
26978;BME280;56314;48.088;11.642;2024-03-02T08:07:37;94397.94;;;8.07;89.85
26978;BME280;56314;48.088;11.642;2024-03-02T08:10:02;94396.19;;;8.29;85.11
26978;BME280;56314;48.088;11.642;2024-03-02T08:12:28;94390.84;;;8.61;84.57
26978;BME280;56314;48.088;11.642;2024-03-02T08:14:53;94386.91;;;8.77;82.02
26978;BME280;56314;48.088;11.642;2024-03-02T08:17:19;94391.28;;;9.07;81.04
26978;BME280;56314;48.088;11.642;2024-03-02T08:19:44;94381.28;;;9.62;79.40
26978;BME280;56314;48.088;11.642;2024-03-02T08:22:10;94386.78;;;9.98;76.15
26978;BME280;56314;48.088;11.642;2024-03-02T08:24:35;94384.03;;;9.70;74.96
26978;BME280;56314;48.088;11.642;2024-03-02T08:27:01;94392.19;;;9.37;76.30
26978;BME280;56314;48.088;11.642;2024-03-02T08:29:26;94394.34;;;9.22;77.47
26978;BME280;56314;48.088;11.642;2024-03-02T08:31:53;94391.00;;;9.20;78.94
26978;BME280;56314;48.088;11.642;2024-03-02T08:34:18;94396.28;;;9.30;77.30
26978;BME280;56314;48.088;11.642;2024-03-02T08:36:43;94401.81;;;9.37;76.20
26978;BME280;56314;48.088;11.642;2024-03-02T08:39:09;94406.03;;;9.08;77.68
26978;BME280;56314;48.088;11.642;2024-03-02T08:41:47;94404.47;;;8.96;80.44
26978;BME280;56314;48.088;11.642;2024-03-02T08:44:13;94398.53;;;8.94;80.23
26978;BME280;56314;48.088;11.642;2024-03-02T08:46:39;94408.91;;;9.05;80.60
26978;BME280;56314;48.088;11.642;2024-03-02T08:49:05;94409.59;;;9.68;77.92
26978;BME280;56314;48.088;11.642;2024-03-02T08:51:30;94400.19;;;10.14;75.97
26978;BME280;56314;48.088;11.642;2024-03-02T08:53:57;94393.44;;;10.69;71.44
26978;BME280;56314;48.088;11.642;2024-03-02T08:56:23;94394.34;;;11.34;66.41
26978;BME280;56314;48.088;11.642;2024-03-02T08:58:52;94393.88;;;12.21;64.26
26978;BME280;56314;48.088;11.642;2024-03-02T09:01:18;94383.19;;;13.52;58.51
26978;BME280;56314;48.088;11.642;2024-03-02T09:03:44;94378.44;;;14.22;55.17
26978;BME280;56314;48.088;11.642;2024-03-02T09:06:11;94375.88;;;14.87;54.80
26978;BME280;56314;48.088;11.642;2024-03-02T09:08:36;94370.59;;;15.90;52.62
26978;BME280;56314;48.088;11.642;2024-03-02T09:11:03;94364.91;;;16.54;51.69
26978;BME280;56314;48.088;11.642;2024-03-02T09:13:28;94364.72;;;17.61;47.26
26978;BME280;56314;48.088;11.642;2024-03-02T09:15:54;94362.66;;;18.21;45.63
26978;BME280;56314;48.088;11.642;2024-03-02T09:18:19;94364.69;;;18.19;43.97
26978;BME280;56314;48.088;11.642;2024-03-02T09:20:45;94374.31;;;18.20;43.32
26978;BME280;56314;48.088;11.642;2024-03-02T09:23:11;94373.41;;;17.54;44.68
26978;BME280;56314;48.088;11.642;2024-03-02T09:25:36;94375.69;;;17.06;45.01
26978;BME280;56314;48.088;11.642;2024-03-02T09:28:02;94370.44;;;16.83;46.45
26978;BME280;56314;48.088;11.642;2024-03-02T09:30:28;94376.78;;;16.43;47.22
26978;BME280;56314;48.088;11.642;2024-03-02T09:32:53;94365.03;;;17.21;46.32
26978;BME280;56314;48.088;11.642;2024-03-02T09:35:19;94363.06;;;17.60;44.58
26978;BME280;56314;48.088;11.642;2024-03-02T09:37:45;94353.31;;;18.82;43.09
26978;BME280;56314;48.088;11.642;2024-03-02T09:40:10;94348.28;;;19.43;40.87
26978;BME280;56314;48.088;11.642;2024-03-02T09:42:37;94353.19;;;19.94;39.79
26978;BME280;56314;48.088;11.642;2024-03-02T09:45:03;94340.59;;;19.61;40.27
26978;BME280;56314;48.088;11.642;2024-03-02T09:47:28;94346.72;;;18.78;41.50
26978;BME280;56314;48.088;11.642;2024-03-02T09:49:54;94343.31;;;19.19;41.67
26978;BME280;56314;48.088;11.642;2024-03-02T09:52:22;94346.47;;;20.12;40.39
26978;BME280;56314;48.088;11.642;2024-03-02T09:54:47;94343.16;;;19.34;40.37
26978;BME280;56314;48.088;11.642;2024-03-02T09:57:14;94343.16;;;19.90;39.80
26978;BME280;56314;48.088;11.642;2024-03-02T09:59:40;94337.22;;;20.01;40.10
26978;BME280;56314;48.088;11.642;2024-03-02T10:02:05;94340.41;;;19.76;39.87
26978;BME280;56314;48.088;11.642;2024-03-02T10:04:32;94339.28;;;20.26;39.40
26978;BME280;56314;48.088;11.642;2024-03-02T10:07:15;94335.59;;;20.74;38.37
26978;BME280;56314;48.088;11.642;2024-03-02T10:09:45;94331.91;;;20.41;38.69
26978;BME280;56314;48.088;11.642;2024-03-02T10:12:13;94330.84;;;20.83;39.74
26978;BME280;56314;48.088;11.642;2024-03-02T10:14:39;94327.53;;;20.94;37.85
26978;BME280;56314;48.088;11.642;2024-03-02T10:17:06;94325.88;;;21.00;37.74
26978;BME280;56314;48.088;11.642;2024-03-02T10:19:33;94326.03;;;21.25;36.55
26978;BME280;56314;48.088;11.642;2024-03-02T10:22:00;94323.19;;;21.06;36.65
26978;BME280;56314;48.088;11.642;2024-03-02T10:24:26;94325.13;;;20.79;37.31
26978;BME280;56314;48.088;11.642;2024-03-02T10:26:51;94327.78;;;20.66;37.10
26978;BME280;56314;48.088;11.642;2024-03-02T10:29:18;94328.00;;;20.64;38.08
26978;BME280;56314;48.088;11.642;2024-03-02T10:31:45;94316.72;;;20.42;37.40
26978;BME280;56314;48.088;11.642;2024-03-02T10:34:14;94322.66;;;20.64;37.33
26978;BME280;56314;48.088;11.642;2024-03-02T10:36:42;94319.38;;;20.75;37.35
26978;BME280;56314;48.088;11.642;2024-03-02T10:39:09;94316.09;;;20.33;36.76
26978;BME280;56314;48.088;11.642;2024-03-02T10:41:36;94317.59;;;19.40;38.49
26978;BME280;56314;48.088;11.642;2024-03-02T10:44:02;94310.31;;;19.76;38.60
26978;BME280;56314;48.088;11.642;2024-03-02T10:46:30;94312.00;;;19.90;39.72
26978;BME280;56314;48.088;11.642;2024-03-02T10:49:00;94303.41;;;20.08;38.86
26978;BME280;56314;48.088;11.642;2024-03-02T10:51:30;94294.81;;;20.26;38.62
26978;BME280;56314;48.088;11.642;2024-03-02T10:53:59;94293.56;;;20.15;37.48
26978;BME280;56314;48.088;11.642;2024-03-02T11:01:47;94284.69;;;19.68;39.11
26978;BME280;56314;48.088;11.642;2024-03-02T11:04:14;94285.16;;;19.16;39.04
26978;BME280;56314;48.088;11.642;2024-03-02T11:06:46;94279.91;;;19.36;38.85
26978;BME280;56314;48.088;11.642;2024-03-02T11:09:14;94282.47;;;19.10;39.89
26978;BME280;56314;48.088;11.642;2024-03-02T11:11:43;94274.22;;;19.53;39.95
26978;BME280;56314;48.088;11.642;2024-03-02T11:14:14;94271.31;;;19.48;39.30
26978;BME280;56314;48.088;11.642;2024-03-02T11:16:42;94260.56;;;19.07;39.70
26978;BME280;56314;48.088;11.642;2024-03-02T11:19:13;94256.53;;;19.25;40.25
26978;BME280;56314;48.088;11.642;2024-03-02T11:21:40;94254.88;;;19.24;39.86
26978;BME280;56314;48.088;11.642;2024-03-02T11:26:47;94241.44;;;19.59;39.35
26978;BME280;56314;48.088;11.642;2024-03-02T11:32:17;94234.09;;;19.75;38.05
26978;BME280;56314;48.088;11.642;2024-03-02T11:34:45;94234.94;;;19.89;38.20
26978;BME280;56314;48.088;11.642;2024-03-02T11:37:18;94231.22;;;19.76;38.24
26978;BME280;56314;48.088;11.642;2024-03-02T11:39:48;94231.97;;;19.30;38.36
26978;BME280;56314;48.088;11.642;2024-03-02T11:42:14;94227.28;;;19.32;38.60
26978;BME280;56314;48.088;11.642;2024-03-02T11:44:49;94224.38;;;19.20;38.75
26978;BME280;56314;48.088;11.642;2024-03-02T11:47:16;94222.63;;;18.92;38.93
26978;BME280;56314;48.088;11.642;2024-03-02T11:49:49;94222.63;;;18.92;38.74
26978;BME280;56314;48.088;11.642;2024-03-02T11:52:15;94219.06;;;18.78;39.42
26978;BME280;56314;48.088;11.642;2024-03-02T11:54:44;94203.66;;;19.02;38.92
26978;BME280;56314;48.088;11.642;2024-03-02T11:57:15;94205.88;;;18.98;39.50
26978;BME280;56314;48.088;11.642;2024-03-02T11:59:41;94202.53;;;18.41;40.28
26978;BME280;56314;48.088;11.642;2024-03-02T12:02:14;94201.84;;;18.25;41.60
26978;BME280;56314;48.088;11.642;2024-03-02T12:04:40;94201.56;;;17.85;41.57
26978;BME280;56314;48.088;11.642;2024-03-02T12:07:06;94199.84;;;17.27;42.75
26978;BME280;56314;48.088;11.642;2024-03-02T12:09:31;94198.06;;;17.13;43.77
26978;BME280;56314;48.088;11.642;2024-03-02T12:12:07;94198.69;;;16.63;45.19
26978;BME280;56314;48.088;11.642;2024-03-02T12:14:34;94194.72;;;16.22;46.54
26978;BME280;56314;48.088;11.642;2024-03-02T12:17:00;94194.25;;;15.65;47.15
26978;BME280;56314;48.088;11.642;2024-03-02T12:19:26;94204.72;;;15.44;48.83
26978;BME280;56314;48.088;11.642;2024-03-02T12:21:53;94196.97;;;15.19;48.53
26978;BME280;56314;48.088;11.642;2024-03-02T12:24:21;94197.59;;;14.98;48.78
26978;BME280;56314;48.088;11.642;2024-03-02T12:26:46;94190.13;;;14.78;49.31
26978;BME280;56314;48.088;11.642;2024-03-02T12:29:13;94193.78;;;14.60;49.53
26978;BME280;56314;48.088;11.642;2024-03-02T12:31:40;94187.63;;;14.37;50.91
26978;BME280;56314;48.088;11.642;2024-03-02T12:34:06;94190.69;;;14.17;51.43
26978;BME280;56314;48.088;11.642;2024-03-02T12:36:37;94186.69;;;14.21;50.28
26978;BME280;56314;48.088;11.642;2024-03-02T12:39:03;94178.41;;;14.64;49.76
26978;BME280;56314;48.088;11.642;2024-03-02T12:41:28;94174.69;;;15.13;48.80
26978;BME280;56314;48.088;11.642;2024-03-02T12:43:54;94172.75;;;15.68;47.17
26978;BME280;56314;48.088;11.642;2024-03-02T12:46:20;94157.00;;;16.20;45.90
26978;BME280;56314;48.088;11.642;2024-03-02T12:48:45;94156.56;;;16.68;44.74
26978;BME280;56314;48.088;11.642;2024-03-02T12:51:10;94152.34;;;16.74;44.60
26978;BME280;56314;48.088;11.642;2024-03-02T12:53:36;94149.81;;;17.24;43.32
26978;BME280;56314;48.088;11.642;2024-03-02T12:56:01;94136.41;;;17.54;42.83
26978;BME280;56314;48.088;11.642;2024-03-02T12:58:27;94127.84;;;17.59;42.57